Time;durP1;ratioP1;P1;durP2;ratioP2;P2;SDS_P1;SDS_P2;PMS_P1;PMS_P2;Temp;Humidity;BMP_temperature;BMP_pressure;BME280_temperature;BME280_humidity;BME280_pressure;Samples;Min_cycle;Max_cycle;Signal;HPM_P1;HPM_P2
2022/09/20 00:01:15;;;;;;;5.78;2.92;;;14.60;92.10;;;;;;5074916;28;20476;-77
2022/09/20 00:03:44;;;;;;;4.72;2.70;;;14.50;92.20;;;;;;5075083;28;20021;-77
2022/09/20 00:06:13;;;;;;;6.82;2.78;;;14.50;92.40;;;;;;5063026;28;20035;-77
2022/09/20 00:08:39;;;;;;;3.42;2.65;;;14.50;92.20;;;;;;5071191;28;20028;-78
2022/09/20 00:11:09;;;;;;;4.80;2.58;;;14.50;92.40;;;;;;5076356;28;20031;-77
2022/09/20 00:13:36;;;;;;;6.55;2.80;;;14.40;92.50;;;;;;5066675;28;20044;-77
2022/09/20 00:16:07;;;;;;;3.58;2.80;;;14.40;92.80;;;;;;5068070;28;20024;-77
2022/09/20 00:18:33;;;;;;;3.47;2.65;;;14.40;93.00;;;;;;5078224;28;20021;-77
2022/09/20 00:20:59;;;;;;;4.93;2.70;;;14.40;93.00;;;;;;5063324;28;20021;-77
2022/09/20 00:23:25;;;;;;;3.45;2.63;;;14.40;93.70;;;;;;5066827;28;20020;-76
2022/09/20 00:26:01;;;;;;;4.18;2.80;;;14.30;94.50;;;;;;5073313;28;20496;-77
2022/09/20 00:28:28;;;;;;;7.60;3.35;;;14.10;96.50;;;;;;5070494;28;20399;-77
2022/09/20 00:30:55;;;;;;;6.75;3.17;;;13.90;96.60;;;;;;5071051;28;20037;-77
2022/09/20 00:33:23;;;;;;;5.60;3.35;;;13.80;96.70;;;;;;5075791;28;20025;-77
2022/09/20 00:35:49;;;;;;;15.38;4.45;;;13.60;97.90;;;;;;5075654;28;20049;-77
2022/09/20 00:38:15;;;;;;;7.05;2.90;;;13.40;98.00;;;;;;5075821;28;20028;-77
2022/09/20 00:40:42;;;;;;;6.50;3.28;;;13.30;98.10;;;;;;5076793;28;20108;-77
2022/09/20 00:43:16;;;;;;;3.22;2.72;;;13.20;98.20;;;;;;5073693;28;20024;-77
2022/09/20 00:45:46;;;;;;;3.72;2.90;;;13.20;98.60;;;;;;5084887;28;20016;-76
2022/09/20 00:48:22;;;;;;;4.38;2.95;;;13.20;98.10;;;;;;5061059;28;20021;-77
2022/09/20 00:50:54;;;;;;;6.35;2.90;;;13.30;97.90;;;;;;5062768;28;20082;-77
2022/09/20 00:53:32;;;;;;;5.43;3.13;;;13.30;97.80;;;;;;5064567;28;20017;-77
2022/09/20 00:56:08;;;;;;;5.25;3.10;;;13.40;97.60;;;;;;5067635;28;20029;-77
2022/09/20 00:58:45;;;;;;;10.15;2.95;;;13.50;97.50;;;;;;5069503;28;20020;-76
2022/09/20 01:01:12;;;;;;;6.05;3.05;;;13.50;97.40;;;;;;5070809;28;20025;-77
2022/09/20 01:03:40;;;;;;;8.50;3.63;;;13.60;97.20;;;;;;5067052;28;20385;-77
2022/09/20 01:06:12;;;;;;;8.82;2.80;;;13.50;97.50;;;;;;5076999;28;20032;-76
2022/09/20 01:08:41;;;;;;;6.78;2.70;;;13.50;97.70;;;;;;5074871;28;20071;-77
2022/09/20 01:11:06;;;;;;;4.10;2.70;;;13.50;97.70;;;;;;5069784;28;20024;-77
2022/09/20 01:13:32;;;;;;;7.82;3.30;;;13.60;97.70;;;;;;5063518;28;20070;-76
2022/09/20 01:16:00;;;;;;;8.80;3.60;;;13.60;97.90;;;;;;5074589;28;20029;-77
2022/09/20 01:18:28;;;;;;;3.20;2.53;;;13.50;97.80;;;;;;5071967;28;20090;-77
2022/09/20 01:20:55;;;;;;;5.15;3.35;;;13.50;98.00;;;;;;5076216;28;20036;-77
2022/09/20 01:23:38;;;;;;;5.65;3.20;;;13.40;97.90;;;;;;5075292;28;20013;-77
2022/09/20 01:26:23;;;;;;;5.53;3.15;;;13.40;98.30;;;;;;5077995;28;20070;-77
2022/09/20 01:28:58;;;;;;;7.72;3.03;;;13.40;98.50;;;;;;5070959;28;20040;-77
2022/09/20 01:31:27;;;;;;;6.07;3.63;;;13.30;98.60;;;;;;5061254;28;20040;-77
2022/09/20 01:33:57;;;;;;;11.38;2.70;;;13.30;98.80;;;;;;5061500;28;20099;-77
2022/09/20 01:36:38;;;;;;;4.70;2.90;;;13.30;98.70;;;;;;5064421;28;20056;-77
2022/09/20 01:39:18;;;;;;;4.03;2.80;;;13.20;98.50;;;;;;5076164;28;20104;-77
2022/09/20 01:42:02;;;;;;;11.65;3.15;;;13.20;98.70;;;;;;5069499;28;20389;-77
2022/09/20 01:45:00;;;;;;;4.75;2.92;;;13.20;98.80;;;;;;5071506;28;20025;-77
2022/09/20 01:47:31;;;;;;;4.53;3.10;;;13.10;98.80;;;;;;5068763;28;20037;-77
2022/09/20 01:50:21;;;;;;;3.22;2.60;;;13.00;99.10;;;;;;5075304;28;20029;-77
2022/09/20 01:53:03;;;;;;;4.85;3.00;;;13.00;99.40;;;;;;5072929;28;20151;-77
2022/09/20 01:56:02;;;;;;;5.63;2.85;;;12.90;99.60;;;;;;5072999;28;20025;-76
2022/09/20 01:58:53;;;;;;;4.75;3.05;;;12.90;99.30;;;;;;5062383;28;20494;-77
2022/09/20 02:01:51;;;;;;;5.43;3.10;;;12.90;98.80;;;;;;5063505;28;20027;-77
2022/09/20 02:04:20;;;;;;;3.97;2.92;;;13.00;99.10;;;;;;5058918;28;20037;-77
2022/09/20 02:07:16;;;;;;;7.22;2.95;;;13.00;99.00;;;;;;5067782;28;20017;-76
2022/09/20 02:10:00;;;;;;;6.80;3.53;;;13.00;98.50;;;;;;5066445;28;20071;-77
2022/09/20 02:12:57;;;;;;;6.18;3.38;;;12.90;98.80;;;;;;5072165;28;20028;-77
2022/09/20 02:15:44;;;;;;;6.45;3.35;;;12.90;98.50;;;;;;5072879;28;20044;-77
2022/09/20 02:19:07;;;;;;;4.20;2.95;;;12.90;98.30;;;;;;5074771;28;20112;-77
2022/09/20 02:21:45;;;;;;;5.03;3.00;;;12.90;98.20;;;;;;5010206;28;20066;-77
2022/09/20 02:24:27;;;;;;;8.52;3.22;;;12.90;98.40;;;;;;5005123;28;20036;-77
2022/09/20 02:27:29;;;;;;;7.20;3.00;;;12.90;98.10;;;;;;5054942;28;20107;-76
2022/09/20 02:30:11;;;;;;;4.35;3.30;;;12.90;98.40;;;;;;5064087;28;20416;-77
2022/09/20 02:33:19;;;;;;;5.43;3.28;;;12.80;98.60;;;;;;5062703;28;20460;-76
2022/09/20 02:35:57;;;;;;;9.27;3.33;;;12.70;98.80;;;;;;5075535;28;20116;-77
2022/09/20 02:38:47;;;;;;;10.10;3.53;;;12.60;98.70;;;;;;5070231;28;20111;-76
2022/09/20 02:41:39;;;;;;;4.07;3.42;;;12.60;98.70;;;;;;5072508;28;20013;-77
2022/09/20 02:44:14;;;;;;;6.15;3.00;;;12.60;98.90;;;;;;5068772;28;20112;-74
2022/09/20 02:46:55;;;;;;;5.00;2.72;;;12.60;99.40;;;;;;5066455;28;20052;-74
2022/09/20 02:49:52;;;;;;;10.10;3.90;;;12.60;99.90;;;;;;5072963;28;20032;-74
2022/09/20 02:52:47;;;;;;;3.63;2.95;;;12.50;99.90;;;;;;5074830;28;20028;-74
2022/09/20 02:55:31;;;;;;;11.40;4.30;;;12.40;99.90;;;;;;5066914;28;20518;-74
2022/09/20 02:58:17;;;;;;;5.18;2.70;;;12.40;99.90;;;;;;5061429;28;20481;-74
2022/09/20 03:01:25;;;;;;;5.90;3.05;;;12.30;99.90;;;;;;5061602;28;20030;-74
2022/09/20 03:04:12;;;;;;;3.67;2.75;;;12.30;99.90;;;;;;5052991;28;20036;-74
2022/09/20 03:07:08;;;;;;;4.95;2.92;;;12.20;99.90;;;;;;5060664;28;20032;-74
2022/09/20 03:09:50;;;;;;;6.00;3.25;;;12.10;99.90;;;;;;5062489;28;20044;-74
2022/09/20 03:12:47;;;;;;;3.42;2.90;;;12.10;99.90;;;;;;5067261;28;20029;-74
2022/09/20 03:15:52;;;;;;;5.28;2.80;;;12.00;99.90;;;;;;5072482;28;20018;-74
2022/09/20 03:18:32;;;;;;;3.88;2.95;;;12.00;99.90;;;;;;5067811;28;20397;-74
2022/09/20 03:21:21;;;;;;;3.77;3.00;;;11.90;99.90;;;;;;5073062;28;20393;-74
2022/09/20 03:24:15;;;;;;;8.30;3.70;;;11.80;99.90;;;;;;5074345;28;20107;-74
2022/09/20 03:26:56;;;;;;;4.97;3.17;;;11.70;99.90;;;;;;5069347;28;20037;-74
2022/09/20 03:29:35;;;;;;;;;;;11.60;99.90;;;;;;5058108;28;20032;-74
2022/09/20 03:32:19;;;;;;;6.28;3.33;;;11.60;99.90;;;;;;5058576;28;19912;-74
2022/09/20 03:35:03;;;;;;;6.80;3.00;;;11.50;99.90;;;;;;5060424;28;20075;-74
2022/09/20 03:37:53;;;;;;;5.72;2.97;;;11.40;99.90;;;;;;5068855;28;20041;-74
2022/09/20 03:40:30;;;;;;;5.35;3.17;;;11.30;99.90;;;;;;5061798;28;20028;-74
2022/09/20 03:43:13;;;;;;;10.30;3.58;;;11.40;99.90;;;;;;5064695;28;20025;-75
2022/09/20 03:45:41;;;;;;;4.85;2.78;;;11.30;99.90;;;;;;5065971;28;20017;-74
2022/09/20 03:48:22;;;;;;;5.70;3.33;;;11.40;99.90;;;;;;5074057;28;20033;-73
2022/09/20 03:50:51;;;;;;;6.28;3.40;;;11.50;99.90;;;;;;5070328;28;20032;-75
2022/09/20 03:53:55;;;;;;;8.18;3.55;;;11.50;99.90;;;;;;5067482;28;20108;-74
2022/09/20 03:56:28;;;;;;;7.47;4.18;;;11.50;99.90;;;;;;5074212;28;20029;-74
2022/09/20 03:59:05;;;;;;;10.82;3.80;;;11.50;99.90;;;;;;5062475;28;20525;-75
2022/09/20 04:02:09;;;;;;;4.10;3.25;;;11.40;99.90;;;;;;5062718;28;20028;-75
2022/09/20 04:04:54;;;;;;;11.65;4.07;;;11.40;99.90;;;;;;5072811;28;20107;-75
2022/09/20 04:07:45;;;;;;;6.45;4.05;;;11.30;99.90;;;;;;5069380;28;20029;-75
2022/09/20 04:10:20;;;;;;;5.60;3.55;;;11.30;99.90;;;;;;5072233;28;20500;-75
2022/09/20 04:12:49;;;;;;;7.15;3.30;;;11.20;99.90;;;;;;5073414;28;20032;-74
2022/09/20 04:15:19;;;;;;;7.75;3.25;;;11.30;99.90;;;;;;5072243;28;20047;-74
2022/09/20 04:18:08;;;;;;;4.55;3.53;;;11.40;99.90;;;;;;5076209;28;20077;-74
2022/09/20 04:20:59;;;;;;;3.80;3.25;;;11.40;99.90;;;;;;5077896;28;20035;-74
2022/09/20 04:23:38;;;;;;;6.65;3.60;;;11.40;99.90;;;;;;5077459;28;20028;-75
2022/09/20 04:26:04;;;;;;;7.15;3.88;;;11.40;99.90;;;;;;5079171;28;20058;-74
2022/09/20 04:28:53;;;;;;;6.13;3.28;;;11.50;99.90;;;;;;5062971;28;20108;-74
2022/09/20 04:31:53;;;;;;;7.60;3.75;;;11.40;99.90;;;;;;5063303;28;20431;-75
2022/09/20 04:36:27;;;;;;;7.25;4.78;;;11.40;99.90;;;;;;5070176;28;20037;-74
2022/09/20 04:37:32;;;;;;;4.72;3.05;;;11.30;99.90;;;;;;5066990;28;20111;-74
2022/09/20 04:40:29;;;;;;;13.45;5.47;;;11.40;99.90;;;;;;5077933;28;20029;-74
2022/09/20 04:43:10;;;;;;;7.15;3.75;;;11.30;99.90;;;;;;5076891;28;20099;-74
2022/09/20 04:46:02;;;;;;;5.82;3.58;;;11.40;99.90;;;;;;5078006;28;20117;-74
2022/09/20 04:48:45;;;;;;;4.50;3.60;;;11.30;99.90;;;;;;5053391;28;20051;-74
2022/09/20 04:51:35;;;;;;;4.07;3.65;;;11.30;99.90;;;;;;5072606;28;20028;-74
2022/09/20 04:54:38;;;;;;;6.55;3.42;;;11.20;99.90;;;;;;5073494;28;20104;-74
2022/09/20 04:57:35;;;;;;;3.55;3.25;;;11.10;99.90;;;;;;5072357;28;20040;-74
2022/09/20 05:00:12;;;;;;;7.93;3.55;;;11.00;99.90;;;;;;5077285;28;20389;-74
2022/09/20 05:03:10;;;;;;;5.25;3.88;;;11.00;99.90;;;;;;5077345;28;20024;-74
2022/09/20 05:05:52;;;;;;;6.55;3.42;;;11.00;99.90;;;;;;5062571;28;20024;-74
2022/09/20 05:08:37;;;;;;;5.00;3.53;;;10.90;99.90;;;;;;5060310;28;20431;-74
2022/09/20 05:11:29;;;;;;;5.53;3.10;;;10.80;99.90;;;;;;5066797;28;20087;-74
2022/09/20 05:14:18;;;;;;;5.18;3.42;;;10.80;99.90;;;;;;5068114;28;20047;-74
2022/09/20 05:16:56;;;;;;;5.22;3.42;;;10.80;99.90;;;;;;5064821;28;20031;-74
2022/09/20 05:19:48;;;;;;;7.68;3.65;;;10.70;99.90;;;;;;5066508;28;20024;-74
2022/09/20 05:22:44;;;;;;;3.97;3.33;;;10.70;99.90;;;;;;5072049;28;20054;-74
2022/09/20 05:25:38;;;;;;;4.18;3.67;;;10.70;99.90;;;;;;5071822;28;20021;-74
2022/09/20 05:28:26;;;;;;;6.53;3.88;;;10.60;99.90;;;;;;5069179;28;20032;-74
2022/09/20 05:30:57;;;;;;;5.63;3.60;;;10.50;99.90;;;;;;5074240;28;20032;-75
2022/09/20 05:33:43;;;;;;;6.20;3.42;;;10.50;99.90;;;;;;5074243;28;20435;-74
2022/09/20 05:36:46;;;;;;;7.00;3.80;;;10.40;99.90;;;;;;5073238;28;20052;-74
2022/09/20 05:39:37;;;;;;;4.10;3.63;;;10.30;99.90;;;;;;5072434;28;20523;-74
2022/09/20 05:42:33;;;;;;;5.75;3.38;;;10.30;99.90;;;;;;5062636;28;20021;-74
2022/09/20 05:45:17;;;;;;;5.43;3.60;;;10.30;99.90;;;;;;5073437;28;20025;-74
2022/09/20 05:48:03;;;;;;;4.93;3.65;;;10.30;99.90;;;;;;5071072;28;20107;-74
2022/09/20 05:50:59;;;;;;;4.53;3.85;;;10.30;99.90;;;;;;5063885;28;20394;-74
2022/09/20 05:53:51;;;;;;;5.32;3.95;;;10.30;99.90;;;;;;5058350;28;20043;-74
2022/09/20 05:57:06;;;;;;;8.77;4.20;;;10.40;99.90;;;;;;5059539;28;20025;-74
2022/09/20 06:00:12;;;;;;;5.72;4.03;;;10.40;99.90;;;;;;5058018;28;20411;-74
2022/09/20 06:03:09;;;;;;;5.07;3.92;;;10.50;99.90;;;;;;5075897;28;20062;-74
2022/09/20 06:06:13;;;;;;;5.85;3.75;;;10.60;99.90;;;;;;5066235;28;20039;-74
2022/09/20 06:08:51;;;;;;;4.45;3.50;;;10.70;99.90;;;;;;5069462;28;20089;-74
2022/09/20 06:11:41;;;;;;;5.57;4.43;;;10.70;99.90;;;;;;5068194;28;20115;-74
2022/09/20 06:14:19;;;;;;;7.50;4.23;;;10.90;99.90;;;;;;5064658;28;20107;-74
2022/09/20 06:17:10;;;;;;;6.97;4.60;;;11.00;99.90;;;;;;5071074;28;20657;-74
2022/09/20 06:19:48;;;;;;;9.30;4.65;;;11.20;99.90;;;;;;5072190;28;20047;-74
2022/09/20 06:22:39;;;;;;;6.25;4.60;;;11.30;99.90;;;;;;5075649;28;20016;-74
2022/09/20 06:25:08;;;;;;;14.68;4.93;;;11.40;99.90;;;;;;5072428;28;20067;-74
2022/09/20 06:27:39;;;;;;;8.20;5.05;;;11.40;99.90;;;;;;5077524;28;20439;-75
2022/09/20 06:30:14;;;;;;;17.75;5.20;;;11.40;99.90;;;;;;5076006;28;20016;-75
2022/09/20 06:32:54;;;;;;;12.07;4.65;;;11.40;99.90;;;;;;5069147;28;20051;-75
2022/09/20 06:35:25;;;;;;;11.83;5.27;;;11.50;99.90;;;;;;5070132;28;20017;-75
2022/09/20 06:41:29;;;;;;;14.20;4.50;;;11.50;99.90;;;;;;5063058;28;20460;-75
2022/09/20 06:43:39;;;;;;;6.03;4.45;;;11.60;99.90;;;;;;5074376;28;20029;-75
2022/09/20 06:46:06;;;;;;;9.23;5.32;;;11.70;99.90;;;;;;5067027;28;20092;-75
2022/09/20 06:48:31;;;;;;;12.30;4.97;;;11.80;99.90;;;;;;5070852;28;20810;-75
2022/09/20 06:50:57;;;;;;;16.52;4.30;;;11.90;99.90;;;;;;5070446;28;20053;-74
2022/09/20 06:53:31;;;;;;;5.65;4.25;;;12.00;99.90;;;;;;5073361;28;20032;-75
2022/09/20 06:55:58;;;;;;;8.50;4.35;;;12.20;99.90;;;;;;5072044;28;20117;-75
2022/09/20 06:58:25;;;;;;;10.38;4.07;;;12.50;99.90;;;;;;5075000;28;20174;-75
2022/09/20 07:00:52;;;;;;;10.02;4.70;;;12.80;99.90;;;;;;5071586;28;20484;-75
2022/09/20 07:03:18;;;;;;;9.40;5.28;;;12.90;99.90;;;;;;5057045;28;20508;-74
2022/09/20 07:05:45;;;;;;;11.25;4.55;;;13.10;99.90;;;;;;5060222;28;20025;-75
2022/09/20 07:08:11;;;;;;;4.75;3.63;;;13.20;99.90;;;;;;5060556;28;20650;-75
2022/09/20 07:10:37;;;;;;;5.68;3.72;;;13.40;99.90;;;;;;5065661;28;20101;-75
2022/09/20 07:13:04;;;;;;;6.50;3.63;;;13.60;99.90;;;;;;5061077;28;20024;-75
2022/09/20 07:15:32;;;;;;;6.95;3.70;;;13.70;99.90;;;;;;5067001;28;20032;-75
2022/09/20 07:17:59;;;;;;;11.85;4.00;;;13.90;99.90;;;;;;5066244;28;20074;-75
2022/09/20 07:20:25;;;;;;;7.40;4.03;;;14.00;99.90;;;;;;5070569;28;20546;-75
2022/09/20 07:22:52;;;;;;;8.15;3.58;;;14.10;99.90;;;;;;5072083;28;20027;-74
2022/09/20 07:25:19;;;;;;;9.85;3.47;;;14.20;99.90;;;;;;5074012;28;20131;-74
2022/09/20 07:27:46;;;;;;;4.85;3.22;;;14.20;99.90;;;;;;5077202;28;20070;-76
2022/09/20 07:30:13;;;;;;;5.80;3.58;;;14.30;99.90;;;;;;5076243;28;20119;-77
2022/09/20 07:32:39;;;;;;;11.65;3.70;;;14.40;99.90;;;;;;5079416;28;20089;-77
2022/09/20 07:35:10;;;;;;;3.60;2.80;;;14.40;99.90;;;;;;5073941;28;20021;-77
2022/09/20 07:37:36;;;;;;;6.43;3.35;;;14.50;99.90;;;;;;5070611;28;20037;-77
2022/09/20 07:40:04;;;;;;;4.07;2.55;;;14.60;99.90;;;;;;5078990;28;20097;-77
2022/09/20 07:42:30;;;;;;;7.00;3.00;;;14.70;99.90;;;;;;5074721;28;20056;-76
2022/09/20 07:44:56;;;;;;;7.40;3.10;;;14.70;99.90;;;;;;5077837;28;20020;-77
2022/09/20 07:47:24;;;;;;;7.95;3.22;;;14.80;99.90;;;;;;5073003;28;20017;-76
2022/09/20 07:49:51;;;;;;;5.30;3.10;;;14.90;99.90;;;;;;5065810;28;20036;-77
2022/09/20 07:52:18;;;;;;;6.15;3.30;;;15.00;99.90;;;;;;5072686;28;20106;-76
2022/09/20 07:54:44;;;;;;;8.93;3.58;;;15.00;99.90;;;;;;5080008;28;20047;-76
2022/09/20 07:57:11;;;;;;;5.05;3.13;;;15.10;99.90;;;;;;5071236;28;20084;-77
2022/09/20 07:59:36;;;;;;;10.98;3.53;;;15.10;99.90;;;;;;5067172;28;20397;-78
2022/09/20 08:02:03;;;;;;;12.32;4.10;;;15.10;99.90;;;;;;5073407;28;20027;-77
2022/09/20 08:04:28;;;;;;;8.80;3.95;;;15.20;99.90;;;;;;5078291;28;20051;-77
2022/09/20 08:06:55;;;;;;;12.57;3.17;;;15.20;99.90;;;;;;5078661;28;20017;-76
2022/09/20 08:09:21;;;;;;;8.63;3.78;;;15.20;99.90;;;;;;5058688;28;20035;-76
2022/09/20 08:11:48;;;;;;;9.57;2.92;;;15.20;99.90;;;;;;5071100;28;20494;-77
2022/09/20 08:14:16;;;;;;;11.85;3.00;;;15.30;99.90;;;;;;5079991;28;20025;-76
2022/09/20 08:16:47;;;;;;;11.75;3.42;;;15.30;99.90;;;;;;5074854;28;20056;-76
2022/09/20 08:19:16;;;;;;;;;;;15.40;99.90;;;;;;5089406;28;20215;-76
2022/09/20 08:21:43;;;;;;;7.75;3.47;;;15.40;99.90;;;;;;5076806;28;20273;-76
2022/09/20 08:24:09;;;;;;;6.60;3.47;;;15.50;99.90;;;;;;5075008;28;20480;-77
2022/09/20 08:26:35;;;;;;;8.20;3.55;;;15.60;99.90;;;;;;5075003;28;20025;-76
2022/09/20 08:29:04;;;;;;;9.35;3.75;;;15.70;99.90;;;;;;5078321;28;20024;-76
2022/09/20 08:31:33;;;;;;;11.60;3.30;;;15.70;99.90;;;;;;5078595;28;20024;-77
2022/09/20 08:34:02;;;;;;;14.00;3.70;;;15.80;99.90;;;;;;5070102;28;20055;-77
2022/09/20 08:36:30;;;;;;;7.40;2.78;;;15.90;99.90;;;;;;5061053;28;20059;-76
2022/09/20 08:38:56;;;;;;;8.00;2.97;;;15.90;99.90;;;;;;5068164;28;20016;-77
2022/09/20 08:41:55;;;;;;;14.05;3.65;;;16.00;99.90;;;;;;5069504;28;20063;-76
2022/09/20 08:44:28;;;;;;;8.85;2.72;;;16.20;99.90;;;;;;5070793;28;20098;-76
2022/09/20 08:47:04;;;;;;;8.40;2.95;;;16.30;99.10;;;;;;5075243;28;20021;-76
2022/09/20 08:49:31;;;;;;;8.07;2.95;;;16.40;99.20;;;;;;5075108;28;20435;-76
2022/09/20 08:51:58;;;;;;;7.18;3.28;;;16.50;98.70;;;;;;5075858;28;20504;-77
2022/09/20 08:54:25;;;;;;;11.95;3.45;;;16.70;98.90;;;;;;5071025;28;20028;-76
2022/09/20 08:56:51;;;;;;;12.30;2.88;;;16.80;98.30;;;;;;5073097;28;20056;-76
2022/09/20 08:59:19;;;;;;;15.32;3.55;;;16.90;98.20;;;;;;5064063;28;20021;-77
2022/09/20 09:01:49;;;;;;;9.27;2.53;;;16.90;97.90;;;;;;5062404;28;20021;-76
2022/09/20 09:04:18;;;;;;;6.80;2.20;;;17.00;97.70;;;;;;5067608;28;20024;-77
2022/09/20 09:06:45;;;;;;;5.25;2.75;;;17.10;97.50;;;;;;5072202;28;20033;-76
2022/09/20 09:09:24;;;;;;;7.82;2.80;;;17.00;97.30;;;;;;5069671;28;20090;-77
2022/09/20 09:11:52;;;;;;;8.60;3.25;;;17.20;97.40;;;;;;5067902;28;20104;-76
2022/09/20 09:14:48;;;;;;;7.45;2.38;;;17.30;97.30;;;;;;5074023;28;20025;-77
2022/09/20 09:17:23;;;;;;;8.30;2.63;;;17.40;96.80;;;;;;5074930;28;20107;-77
2022/09/20 09:19:58;;;;;;;8.73;3.00;;;17.60;96.00;;;;;;5072460;28;20025;-77
2022/09/20 09:22:40;;;;;;;9.38;2.70;;;17.60;96.00;;;;;;5068264;28;20024;-77
2022/09/20 09:25:28;;;;;;;5.70;2.58;;;17.60;96.10;;;;;;5076615;28;20013;-77
2022/09/20 09:27:57;;;;;;;6.45;2.63;;;17.70;96.40;;;;;;5065988;28;20024;-77
2022/09/20 09:30:35;;;;;;;5.47;2.65;;;17.80;96.20;;;;;;5060309;28;20385;-78
2022/09/20 09:33:23;;;;;;;7.50;2.50;;;18.00;95.90;;;;;;5062437;28;20052;-76
2022/09/20 09:36:02;;;;;;;3.63;2.90;;;18.00;95.90;;;;;;5069076;28;20055;-78
2022/09/20 09:38:40;;;;;;;4.45;2.78;;;18.00;96.00;;;;;;5066828;28;20110;-75
2022/09/20 09:41:32;;;;;;;11.65;2.90;;;18.20;95.50;;;;;;5075057;28;20024;-76
2022/09/20 09:44:26;;;;;;;16.08;3.10;;;18.20;95.40;;;;;;5072808;28;20476;-74
2022/09/20 09:46:53;;;;;;;7.85;2.47;;;18.30;94.80;;;;;;5067265;28;20024;-75
2022/09/20 09:49:20;;;;;;;8.45;2.55;;;18.40;94.70;;;;;;5072402;28;20021;-76
2022/09/20 09:52:15;;;;;;;27.00;3.13;;;18.50;94.50;;;;;;5071990;28;20116;-76
2022/09/20 09:54:49;;;;;;;9.63;3.53;;;18.60;93.80;;;;;;5064774;28;20029;-75
2022/09/20 09:57:16;;;;;;;4.55;2.25;;;18.70;94.20;;;;;;5074987;28;20019;-76
2022/09/20 10:00:21;;;;;;;6.32;2.90;;;18.80;94.00;;;;;;5076166;28;20032;-74
2022/09/20 10:03:05;;;;;;;5.90;2.22;;;18.90;93.80;;;;;;5064724;28;20515;-75
2022/09/20 10:05:50;;;;;;;7.13;2.50;;;19.10;93.00;;;;;;5061498;28;20440;-76
2022/09/20 10:08:16;;;;;;;4.47;2.25;;;19.20;93.10;;;;;;5057822;28;20397;-76
2022/09/20 10:10:49;;;;;;;2.33;1.80;;;19.30;92.70;;;;;;5076502;28;20024;-75
2022/09/20 10:13:28;;;;;;;6.70;2.28;;;19.40;93.00;;;;;;5074192;28;20481;-75
2022/09/20 10:16:00;;;;;;;5.05;2.20;;;19.50;91.60;;;;;;5082195;28;20050;-75
2022/09/20 10:18:50;;;;;;;5.78;2.25;;;19.60;91.40;;;;;;5072980;28;20087;-75
2022/09/20 10:21:55;;;;;;;4.28;2.55;;;19.70;91.40;;;;;;5058524;28;20088;-75
2022/09/20 10:24:48;;;;;;;5.00;1.90;;;19.80;91.00;;;;;;5033937;28;20056;-76
2022/09/20 10:27:14;;;;;;;4.03;2.10;;;19.90;90.00;;;;;;5071542;28;20020;-75
2022/09/20 10:29:50;;;;;;;5.85;1.98;;;19.90;90.00;;;;;;5064487;28;20040;-74
2022/09/20 10:32:54;;;;;;;6.13;1.90;;;20.00;89.80;;;;;;5067123;28;20032;-74
2022/09/20 10:35:28;;;;;;;6.28;2.03;;;20.00;89.60;;;;;;5065349;28;20028;-75
2022/09/20 10:38:14;;;;;;;4.50;1.80;;;20.10;89.50;;;;;;5068726;28;20045;-74
2022/09/20 10:44:18;;;;;;;4.03;2.17;;;20.30;87.60;;;;;;5069390;28;20108;-75
2022/09/20 10:46:51;;;;;;;4.78;2.00;;;20.50;88.20;;;;;;5064390;28;20020;-75
2022/09/20 10:49:50;;;;;;;2.30;1.80;;;20.60;87.70;;;;;;5063759;28;20051;-75
2022/09/20 10:52:53;;;;;;;4.47;1.92;;;20.60;84.90;;;;;;5072836;28;20125;-74
2022/09/20 10:55:19;;;;;;;3.60;1.73;;;20.80;86.20;;;;;;5070729;28;20054;-76
2022/09/20 10:57:59;;;;;;;3.92;2.03;;;20.90;84.20;;;;;;5065220;28;20029;-75
2022/09/20 11:00:53;;;;;;;5.35;1.75;;;20.80;83.50;;;;;;5059613;28;20029;-77
2022/09/20 11:04:00;;;;;;;6.15;1.83;;;20.90;82.70;;;;;;5067620;28;20108;-76
2022/09/20 11:06:50;;;;;;;9.93;2.22;;;21.00;82.60;;;;;;5082674;28;20054;-73
2022/09/20 11:09:24;;;;;;;4.32;2.17;;;21.10;81.70;;;;;;5068140;28;20031;-75
2022/09/20 11:12:17;;;;;;;5.72;2.22;;;21.20;81.20;;;;;;5064011;28;20040;-74
2022/09/20 11:14:51;;;;;;;3.20;1.90;;;21.30;80.40;;;;;;5067657;28;20032;-74
2022/09/20 11:17:38;;;;;;;2.70;1.73;;;21.40;79.40;;;;;;5079057;28;20133;-75
2022/09/20 11:20:28;;;;;;;7.82;1.90;;;21.50;78.60;;;;;;5074137;28;20112;-74
2022/09/20 11:23:20;;;;;;;3.70;1.60;;;21.50;79.00;;;;;;5073535;28;20468;-74
2022/09/20 11:26:12;;;;;;;4.53;1.70;;;21.60;79.40;;;;;;5075583;28;20028;-73
2022/09/20 11:28:47;;;;;;;2.58;1.38;;;21.60;77.70;;;;;;5069360;28;20021;-75
2022/09/20 11:31:20;;;;;;;2.15;1.58;;;21.50;77.10;;;;;;5056973;28;20029;-75
2022/09/20 11:33:55;;;;;;;6.38;1.90;;;21.50;77.90;;;;;;5059008;28;20021;-74
2022/09/20 11:36:28;;;;;;;4.55;1.60;;;21.60;78.30;;;;;;5062145;28;20053;-75
2022/09/20 11:39:03;;;;;;;7.30;1.60;;;21.70;77.50;;;;;;5060484;28;20029;-74
2022/09/20 11:41:30;;;;;;;3.78;1.52;;;21.80;77.30;;;;;;5065359;28;20032;-76
2022/09/20 11:44:10;;;;;;;6.30;1.83;;;21.90;75.10;;;;;;5062928;28;20486;-73
2022/09/20 11:46:51;;;;;;;2.40;1.70;;;21.90;74.70;;;;;;5078849;28;20076;-77
2022/09/20 11:49:29;;;;;;;2.78;1.48;;;22.00;76.20;;;;;;5066806;28;20255;-76
2022/09/20 11:52:04;;;;;;;14.35;2.38;;;22.10;75.30;;;;;;5070279;28;20158;-77
2022/09/20 11:54:49;;;;;;;5.13;1.60;;;22.20;72.60;;;;;;5070325;28;20025;-76
2022/09/20 11:57:15;;;;;;;4.45;2.30;;;22.30;72.60;;;;;;5072416;28;20017;-77
2022/09/20 11:59:49;;;;;;;4.60;2.13;;;22.30;72.50;;;;;;5075919;28;20025;-78
2022/09/20 12:02:47;;;;;;;3.03;1.90;;;22.30;70.40;;;;;;5073409;28;20092;-79
2022/09/20 12:05:34;;;;;;;3.95;2.03;;;22.30;70.90;;;;;;5057053;28;20029;-77
2022/09/20 12:08:03;;;;;;;3.28;1.50;;;22.40;71.50;;;;;;5071806;28;20385;-78
2022/09/20 12:10:37;;;;;;;3.85;1.83;;;22.40;71.20;;;;;;5064311;28;20028;-77
2022/09/20 12:13:18;;;;;;;3.97;1.50;;;22.40;69.50;;;;;;5063070;28;20028;-77
2022/09/20 12:15:45;;;;;;;8.95;1.60;;;22.60;68.90;;;;;;5070001;28;20036;-78
2022/09/20 12:18:31;;;;;;;3.50;1.50;;;22.70;69.10;;;;;;5066573;28;20102;-78
2022/09/20 12:21:07;;;;;;;10.00;1.98;;;22.70;68.00;;;;;;5067887;28;20476;-77
2022/09/20 12:23:40;;;;;;;10.13;1.77;;;22.70;69.00;;;;;;5071293;28;20111;-76
2022/09/20 12:26:19;;;;;;;6.85;1.80;;;22.70;69.70;;;;;;5073771;28;20021;-76
2022/09/20 12:28:49;;;;;;;4.75;1.52;;;22.90;70.00;;;;;;5066849;28;20052;-76
2022/09/20 12:31:20;;;;;;;5.03;1.83;;;23.00;68.70;;;;;;5075964;28;20028;-76
2022/09/20 12:34:11;;;;;;;4.40;1.65;;;23.00;67.10;;;;;;5079006;28;20480;-77
2022/09/20 12:36:38;;;;;;;7.07;1.92;;;23.10;66.90;;;;;;5074765;28;20107;-77
2022/09/20 12:39:10;;;;;;;4.47;1.48;;;23.20;65.20;;;;;;5060247;28;20021;-77
2022/09/20 12:42:01;;;;;;;2.95;1.35;;;23.30;64.90;;;;;;5062732;28;20017;-77
2022/09/20 12:44:48;;;;;;;1.88;1.35;;;23.30;64.90;;;;;;5064323;28;20017;-77
2022/09/20 12:47:24;;;;;;;7.13;1.70;;;23.50;64.60;;;;;;5071806;28;20522;-77
2022/09/20 12:53:00;;;;;;;1.88;1.15;;;23.70;65.00;;;;;;5079395;28;20040;-77
2022/09/20 12:55:26;;;;;;;2.78;1.10;;;23.70;60.70;;;;;;5061814;28;20032;-78
2022/09/20 12:58:13;;;;;;;2.67;1.27;;;23.70;60.50;;;;;;5071026;28;20400;-76
2022/09/20 13:00:43;;;;;;;3.22;1.77;;;23.60;60.10;;;;;;5077193;28;20485;-78
2022/09/20 13:03:13;;;;;;;2.30;1.48;;;23.60;60.00;;;;;;5070484;28;20017;-77
2022/09/20 13:05:45;;;;;;;3.33;1.10;;;23.70;59.40;;;;;;5061717;28;20028;-76
2022/09/20 13:08:14;;;;;;;2.60;1.38;;;23.80;58.60;;;;;;5069700;28;20032;-77
2022/09/20 13:11:06;;;;;;;1.95;1.27;;;23.90;58.60;;;;;;5066581;28;20035;-77
2022/09/20 13:13:53;;;;;;;1.85;1.20;;;24.00;57.20;;;;;;5065701;28;20437;-77
2022/09/20 13:16:44;;;;;;;3.58;1.33;;;24.00;56.80;;;;;;5069694;28;20039;-76
2022/09/20 13:19:40;;;;;;;1.80;1.15;;;24.00;56.80;;;;;;5069784;28;20021;-76
2022/09/20 13:22:33;;;;;;;2.42;1.10;;;24.00;56.80;;;;;;5071493;28;20104;-77
2022/09/20 13:25:03;;;;;;;6.97;1.70;;;24.10;57.60;;;;;;5075840;28;20017;-76
2022/09/20 13:27:59;;;;;;;2.07;1.10;;;24.10;57.50;;;;;;5075738;28;20020;-77
2022/09/20 13:30:39;;;;;;;1.98;1.20;;;24.30;55.00;;;;;;5065336;28;20024;-77
2022/09/20 13:33:24;;;;;;;2.90;1.20;;;24.40;53.40;;;;;;5073796;28;20039;-77
2022/09/20 13:35:55;;;;;;;3.03;1.00;;;24.30;51.80;;;;;;5077030;28;20049;-77
2022/09/20 13:38:25;;;;;;;2.03;1.17;;;24.30;52.60;;;;;;5074395;28;20028;-76
2022/09/20 13:40:57;;;;;;;8.35;1.45;;;24.30;53.10;;;;;;5066426;28;20114;-77
2022/09/20 13:43:44;;;;;;;2.72;1.15;;;24.30;53.90;;;;;;5073368;28;20021;-77
2022/09/20 13:46:16;;;;;;;7.90;1.52;;;24.40;54.10;;;;;;5061733;28;20619;-77
2022/09/20 13:48:46;;;;;;;7.10;1.30;;;24.30;53.20;;;;;;5070517;28;20052;-78
2022/09/20 13:51:22;;;;;;;2.47;1.30;;;24.40;53.80;;;;;;5075085;28;20021;-77
2022/09/20 13:53:48;;;;;;;3.70;1.33;;;24.50;52.90;;;;;;5068724;28;20028;-79
2022/09/20 13:56:21;;;;;;;1.95;1.20;;;24.60;51.20;;;;;;5070896;28;20032;-78